x

Muskegon, Mi (mkgm4) Weather Station

1:50pm - Thu 17th Aug 2017 All times are CDT. -5 hours from GMT.

  • Wind
    18mph, 21mph gusts
  • Air Temp 73°f
  • Sea Pressure 1005.3mb
  • Muskegon, Mi
  • Muskegon, Mi

More Historic Weather Station data

Upgrade to MSW Pro to gain access to the past 30 days of data for over 8000 Wavebouys and Weather Stations around the globe.

Join

Comparision Forecast

View Surf forecast
   
Thu 08/17 1:50pm 18 21 mph 1005.3mb 73f
1:40pm 18 21 mph 1005.4mb 72f
1:30pm 17 18 mph 1005.5mb 72f
1:20pm 17 18 mph 1005.4mb 72f
1:10pm 18 20 mph 1005.6mb 72f
1:00pm 18 21 mph 1005.8mb 71f
12:50pm 18 21 mph 1006mb 72f
12:40pm 18 21 mph 1006.1mb 72f
12:30pm 17 18 mph 1006.3mb 73f
12:20pm 17 20 mph 1006.4mb 72f
12:10pm 18 21 mph 1006.4mb 72f
12:00pm 20 22 mph 1006.5mb 72f
11:50am 18 21 mph 1006.6mb 72f
11:40am 20 22 mph 1006.5mb 71f
11:30am 20 21 mph 1006.7mb 71f
11:20am 20 21 mph 1006.7mb 71f
11:10am 18 21 mph 1006.7mb 71f
11:00am 16 21 mph 1006.7mb 71f
10:50am 15 16 mph 1006.7mb 71f
10:40am 14 15 mph 1006.7mb 71f
10:30am 15 17 mph 1006.7mb 71f
10:20am 16 17 mph 1006.7mb 71f
10:10am 20 21 mph 1006.7mb 71f
10:00am 20 23 mph 1007mb 71f
9:50am 16 18 mph 1007.1mb 71f
9:40am 16 18 mph 1007mb 71f
9:30am 16 17 mph 1007.1mb 71f
9:20am 18 20 mph 1007.6mb 71f
9:10am 20 21 mph 1007.7mb 71f
9:00am 17 18 mph 1007.7mb 71f
8:50am 18 22 mph 1008mb 71f
8:40am 18 20 mph 1008mb 71f
8:30am 23 25 mph 1008mb 72f
8:20am 18 21 mph 1007.7mb 72f
8:10am 17 20 mph 1007.7mb 72f
8:00am 16 18 mph 1008mb 72f
7:50am 16 17 mph 1007.7mb 72f
7:40am 16 17 mph 1007.7mb 72f
7:30am 16 17 mph 1007.8mb 72f
7:20am 16 18 mph 1007.8mb 72f
7:10am 17 20 mph 1008mb 72f
7:00am 18 20 mph 1008mb 72f
6:50am 16 20 mph 1008mb 71f
6:40am 17 20 mph 1008mb 72f
6:30am 20 22 mph 1008mb 72f
6:20am 20 23 mph 1007.7mb 73f
6:10am 22 25 mph 1007.6mb 72f
6:00am 17 22 mph 1007.6mb 73f
5:50am 15 21 mph 1007.6mb 73f
5:40am 15 21 mph 1007.4mb 72f
5:30am 15 20 mph 1007.4mb 72f
5:20am 14 20 mph 1007.6mb 72f
5:10am 13 21 mph 1007.6mb 72f
5:00am 15 22 mph 1007.7mb 72f
4:50am 15 23 mph 1008mb 72f
4:40am 13 17 mph 1007.9mb 71f
4:30am 11 16 mph 1007.7mb 71f
4:20am 13 20 mph 1007.9mb 71f
4:10am 11 16 mph 1008mb 71f
4:00am 11 15 mph 1008.3mb 71f
3:50am 10 15 mph 1008.1mb 71f
3:40am 8 13 mph 1008.3mb 71f
3:30am 7 11 mph 1008.4mb 71f
3:20am 6 9 mph 1008.6mb 71f
3:10am 8 10 mph 1008.8mb 71f
3:00am 8 14 mph 1009.1mb 71f
2:50am 9 14 mph 1009.1mb 71f
2:40am 9 14 mph 1009.3mb 72f
2:30am 13 16 mph 1009.6mb 73f
2:20am 20 24 mph 1009.7mb 72f
2:10am 10 14 mph 1009.6mb 72f
2:00am 13 15 mph 1009.3mb 72f
1:50am 13 17 mph 1009.3mb 72f
1:40am 11 15 mph 1009.3mb 72f
1:30am 14 18 mph 1009.2mb 72f
1:20am 13 16 mph 1009.5mb 73f
1:10am 13 15 mph 1009.7mb 73f
1:00am 14 18 mph 1009.8mb 73f
12:50am 14 17 mph 1009.9mb 73f
12:40am 13 20 mph 1010.1mb 74f
12:30am 11 14 mph 1010.1mb 76f
12:20am 11 14 mph 1010mb 77f
12:10am 9 13 mph 1010.3mb 77f
12:00am 11 15 mph 1010.2mb 78f
Wed 08/16 11:50pm 10 15 mph 1010mb 79f
11:40pm 10 15 mph 1010.2mb 79f
11:30pm 10 14 mph 1010.3mb 80f
11:20pm 10 15 mph 1010.3mb 80f
11:10pm 10 14 mph 1010.5mb 80f
11:00pm 11 18 mph 1010.7mb 79f
10:50pm 13 17 mph 1010.7mb 79f
10:40pm 9 14 mph 1010.7mb 80f
10:30pm 11 15 mph 1010.8mb 80f
10:20pm 9 15 mph 1011.3mb 80f
10:10pm 13 17 mph 1011.3mb 80f
10:00pm 11 16 mph 1011.3mb 81f
9:50pm 10 15 mph 1011.5mb 81f
9:40pm 10 15 mph 1011.6mb 81f
9:30pm 9 14 mph 1011.6mb 80f
9:20pm 9 11 mph 1011.6mb 80f
9:10pm 7 9 mph 1011.7mb 80f
9:00pm 7 10 mph 1011.7mb 80f
8:50pm 7 10 mph 1011.7mb 80f
8:40pm 8 9 mph 1011.7mb 80f
8:30pm 6 8 mph 1011.8mb 80f
8:20pm 6 7 mph 1011.9mb 81f
8:10pm 6 8 mph 1011.6mb 81f
8:00pm 7 8 mph 1011.6mb 81f
7:50pm 6 7 mph 1011.9mb 81f
7:40pm 6 7 mph 1011.8mb 82f
7:30pm 6 8 mph 1011.9mb 81f
7:20pm 5 6 mph 1012.1mb 81f
7:10pm 3 3 mph 1011.9mb 82f
7:00pm 1 2 mph 1012.1mb 81f
6:50pm 1 2 mph 1012.3mb 81f
6:40pm 1 1 mph 1012.1mb 81f
6:30pm 1 2 mph 1012.1mb 80f
6:20pm 1 2 mph 1012.2mb 79f
6:10pm  -  1 mph 1012.3mb 81f
6:00pm  -  0 mph 1012.1mb 81f
5:50pm 1 1 mph 1012.3mb 80f
5:40pm  -  1 mph 1012.3mb 80f
5:30pm 1 1 mph 1012.6mb 80f
5:20pm 2 2 mph 1012.8mb 80f
5:10pm 1 1 mph 1012.8mb 80f
5:00pm 2 2 mph 1012.8mb 80f
4:50pm 2 2 mph 1013mb 80f
4:40pm 1 2 mph 1013.1mb 80f
4:30pm 2 2 mph 1013.3mb 79f
4:20pm 1 1 mph 1013.4mb 79f
4:10pm 2 2 mph 1013.4mb 78f
4:00pm 2 2 mph 1013.6mb 78f
3:50pm 2 3 mph 1013.5mb 79f
3:40pm 3 5 mph 1013.7mb 79f
3:30pm 5 6 mph 1013.9mb 78f
3:20pm 6 6 mph 1013.9mb 78f
3:10pm 3 3 mph 1014.1mb 78f
3:00pm 5 5 mph 1014.4mb 77f
2:50pm 3 5 mph 1014.6mb 76f
2:40pm 3 3 mph 1014.6mb 76f
2:30pm 3 3 mph 1014.6mb 76f
2:20pm 5 5 mph 1015mb 76f
2:10pm 3 3 mph 1015.2mb 75f
2:00pm 3 3 mph 1015.2mb 75f
1:50pm 3 3 mph 1015.3mb 75f
1:40pm 5 5 mph 1015.5mb 75f
1:30pm 5 5 mph 1015.5mb 75f
1:20pm 5 5 mph 1015.4mb 75f
1:10pm 5 5 mph 1015.6mb 74f
1:00pm 5 5 mph 1015.6mb 74f
12:50pm 3 5 mph 1015.6mb 74f
12:40pm 3 3 mph 1015.8mb 73f
12:30pm 3 3 mph 1015.8mb 73f
12:20pm 3 3 mph 1015.8mb 73f
12:10pm 3 3 mph 1015.9mb 73f
12:00pm 3 3 mph 1015.9mb 72f
11:50am 3 3 mph 1016.1mb 72f
11:40am 3 5 mph 1016.2mb 71f
11:30am 5 6 mph 1016.1mb 72f
11:20am 6 6 mph 1016.3mb 72f
11:10am 6 6 mph 1016.2mb 72f
11:00am 7 7 mph 1016.3mb 71f
10:50am 7 7 mph 1016.3mb 72f
10:40am 7 8 mph 1016.3mb 71f
10:30am 7 8 mph 1016.5mb 72f
10:20am 6 6 mph 1016.5mb 71f
10:10am 6 6 mph 1016.5mb 71f
10:00am 6 6 mph 1016.5mb 71f
9:50am 6 6 mph 1016.7mb 70f
9:40am 6 6 mph 1016.5mb 70f
9:30am 5 5 mph 1016.6mb 70f
9:20am 3 3 mph 1016.7mb 70f
9:10am 3 5 mph 1016.7mb 71f
9:00am 1 1 mph 1016.5mb 72f
8:50am 1 2 mph 1016.5mb 73f
8:40am 2 5 mph 1016.6mb 72f
8:30am 3 5 mph 1016.3mb 71f
8:20am 3 5 mph 1016.4mb 70f
8:10am 2 5 mph 1016.5mb 69f
8:00am 5 6 mph 1016.6mb 68f
7:50am 3 6 mph 1016.6mb 67f
7:40am 6 8 mph 1016.7mb 67f
7:30am 8 9 mph 1016.7mb 66f
7:20am 7 8 mph 1016.7mb 66f
7:10am 7 9 mph 1016.6mb 65f
7:00am 8 10 mph 1016.6mb 65f
6:50am 7 9 mph 1016.7mb 65f
6:40am 8 9 mph 1016.9mb 64f
6:30am 8 9 mph 1016.9mb 64f
6:20am 8 9 mph 1016.7mb 63f
6:10am 8 9 mph 1016.6mb 63f
6:00am 7 9 mph 1016.7mb 63f
5:50am 9 11 mph 1016.5mb 63f
5:40am 8 9 mph 1016.1mb 63f
5:30am 9 13 mph 1016.2mb 63f
5:20am 10 11 mph 1016.2mb 63f
5:10am 9 10 mph 1016.1mb 64f
5:00am 11 13 mph 1016.1mb 64f
4:50am 11 13 mph 1015.8mb 64f
4:40am 9 11 mph 1015.6mb 64f
4:30am 10 13 mph 1015.6mb 64f
4:20am 9 14 mph 1015.6mb 64f
4:10am 11 15 mph 1015.6mb 64f
4:00am 10 13 mph 1015.6mb 64f
3:50am 10 14 mph 1015.9mb 64f
3:40am 9 15 mph 1015.9mb 64f
3:30am 11 14 mph 1015.9mb 64f
3:20am 11 14 mph 1015.6mb 64f
3:10am 10 14 mph 1015.6mb 65f
3:00am 10 14 mph 1015.6mb 65f
2:50am 9 13 mph 1015.6mb 65f
2:40am 10 11 mph 1015.6mb 65f
2:30am 10 14 mph 1015.6mb 64f
2:20am 8 10 mph 1015.6mb 65f
2:10am 8 11 mph 1015.7mb 65f
2:00am 8 10 mph 1015.6mb 64f
1:50am 9 11 mph 1015.9mb 64f
1:40am 10 13 mph 1015.7mb 64f
1:30am 9 10 mph 1016mb 64f
1:20am 9 10 mph 1015.7mb 64f
1:10am 9 11 mph 1015.7mb 64f
1:00am 9 11 mph 1015.8mb 64f
12:50am 9 11 mph 1015.7mb 64f
12:40am 8 9 mph 1015.7mb 64f
12:30am 9 11 mph 1015.8mb 64f
12:20am 8 10 mph 1015.7mb 64f
12:10am 8 9 mph 1015.6mb 64f
12:00am 7 9 mph 1015.6mb 64f
Tue 08/15 11:50pm 8 9 mph 1015.6mb 64f
11:40pm 8 10 mph 1015.6mb 65f
11:30pm 7 9 mph 1015.6mb 65f
11:20pm 6 9 mph 1015.6mb 65f
11:10pm 8 10 mph 1015.6mb 65f
11:00pm 7 9 mph 1015.6mb 65f
10:50pm 7 10 mph 1015.6mb 65f
10:40pm 8 10 mph 1015.5mb 66f
10:30pm 9 11 mph 1015.5mb 66f
10:20pm 8 9 mph 1015.2mb 66f
10:10pm 8 10 mph 1015.2mb 66f
10:00pm 9 11 mph 1015mb 66f
9:50pm 9 13 mph 1014.8mb 67f
9:40pm 11 15 mph 1015mb 67f
9:30pm 10 11 mph 1015mb 67f
9:20pm 10 15 mph 1015mb 67f
9:10pm 10 14 mph 1014.6mb 67f
9:00pm 9 13 mph 1014.6mb 68f
8:50pm 10 14 mph 1014.5mb 68f
8:40pm 10 13 mph 1014.4mb 68f
8:30pm 11 15 mph 1014.4mb 69f
8:20pm 9 13 mph 1014.1mb 69f
8:10pm 9 10 mph 1014.1mb 69f
8:00pm 10 13 mph 1013.8mb 70f
7:50pm 8 9 mph 1013.8mb 70f
7:40pm 7 9 mph 1013.8mb 71f
7:30pm 7 8 mph 1013.8mb 71f
7:20pm 6 7 mph 1013.8mb 71f
7:10pm 6 8 mph 1013.8mb 70f
7:00pm 9 10 mph 1013.8mb 70f
6:50pm 10 11 mph 1013.8mb 70f
6:40pm 10 11 mph 1013.8mb 70f
6:30pm 11 14 mph 1013.8mb 71f
6:20pm 13 15 mph 1014mb 71f
6:10pm 15 16 mph 1014mb 71f
6:00pm 15 17 mph 1014mb 71f
5:50pm 15 18 mph 1014mb 72f
5:40pm 18 21 mph 1014mb 71f
5:30pm 16 20 mph 1014mb 72f
5:20pm 16 21 mph 1014mb 72f
5:10pm 16 22 mph 1014mb 72f
5:00pm 17 21 mph 1013.9mb 72f
4:50pm 18 23 mph 1013.9mb 72f
4:40pm 16 20 mph 1013.9mb 73f
4:30pm 17 21 mph 1013.9mb 73f
4:20pm 16 22 mph 1013.9mb 72f
4:10pm 17 22 mph 1013.8mb 73f
4:00pm 18 22 mph 1013.7mb 72f
3:50pm 18 23 mph 1013.7mb 73f
3:40pm 20 22 mph 1013.7mb 72f
3:30pm 21 24 mph 1013.7mb 72f
3:20pm 22 25 mph 1013.7mb 72f
3:10pm 22 25 mph 1013.7mb 72f
3:00pm 22 24 mph 1013.7mb 73f
2:50pm 20 24 mph 1013.6mb 73f
2:40pm 21 24 mph 1013.6mb 73f
2:30pm 18 23 mph 1013.6mb 73f
2:20pm 21 23 mph 1013.6mb 72f
2:10pm 17 21 mph 1013.6mb 73f
2:00pm 14 21 mph 1013.6mb 73f
1:50pm 18 20 mph 1013.6mb 73f
1:40pm 16 18 mph 1013.6mb 73f
1:30pm 17 20 mph 1013.5mb 73f
1:20pm 14 15 mph 1013.6mb 73f
1:10pm 15 16 mph 1013.4mb 73f
1:00pm 13 14 mph 1013.2mb 73f
12:50pm 11 14 mph 1013.2mb 73f
12:40pm 13 14 mph 1013.1mb 75f
12:30pm 6 9 mph 1013.1mb 75f
12:20pm 7 9 mph 1013.2mb 74f
12:10pm 6 9 mph 1013.1mb 77f
12:00pm 10 14 mph 1013.3mb 74f
11:50am 10 15 mph 1013.3mb 74f
11:40am 9 13 mph 1013.4mb 76f
11:30am 8 10 mph 1013.3mb 77f
11:20am 2 5 mph 1013.4mb 78f
11:10am 6 8 mph 1013.2mb 77f
11:00am 7 8 mph 1013mb 77f
10:50am 3 6 mph 1012.8mb 76f
10:40am 5 8 mph 1012.8mb 75f
10:30am 7 8 mph 1012.7mb 76f
10:20am 6 8 mph 1012.7mb 76f
10:10am 6 8 mph 1012.4mb 74f
10:00am 6 9 mph 1012.5mb 73f
9:50am 8 11 mph 1012.5mb 73f
9:40am 6 8 mph 1012.5mb 73f
9:30am 9 11 mph 1012.5mb 71f
9:20am 6 9 mph 1012.5mb 71f
9:10am 7 11 mph 1012.6mb 70f
9:00am 7 9 mph 1012.6mb 69f
8:50am 8 11 mph 1012.5mb 68f
8:40am 14 16 mph 1012.2mb 67f
8:30am 11 16 mph 1012.2mb 66f
8:20am 11 15 mph 1011.9mb 67f
8:10am 11 15 mph 1011.8mb 67f
8:00am 10 13 mph 1011.7mb 67f
7:50am 9 11 mph 1011.6mb 67f
7:40am 11 14 mph 1011.6mb 67f
7:30am 6 8 mph 1011.7mb 66f
7:20am 7 9 mph 1011.7mb 66f
7:10am 10 16 mph 1011.5mb 66f
7:00am 9 11 mph 1011.6mb 66f
6:50am 9 11 mph 1011.7mb 66f
6:40am 8 11 mph 1011.6mb 65f
6:30am 9 15 mph 1011.6mb 65f
6:20am 11 15 mph 1011.6mb 65f
6:10am 9 14 mph 1011.5mb 65f
6:00am 8 13 mph 1011.3mb 65f
5:50am 10 15 mph 1011.1mb 64f
5:40am 9 14 mph 1011.1mb 65f
5:30am 10 16 mph 1011.1mb 65f
5:20am 8 11 mph 1011.1mb 65f
5:10am 11 15 mph 1011mb 65f
5:00am 11 15 mph 1011.1mb 65f
4:50am 10 14 mph 1011.1mb 65f
4:40am 11 16 mph 1011mb 65f
4:30am 9 11 mph 1010.9mb 65f
4:20am 14 17 mph 1010.7mb 65f
4:10am 7 7 mph 1010.2mb 65f
4:00am 7 8 mph 1010.2mb 66f
3:50am 6 7 mph 1010.2mb 67f
3:40am 5 6 mph 1010.2mb 67f
3:30am 6 7 mph 1010.2mb 67f
3:20am 6 7 mph 1010mb 67f
3:10am 5 6 mph 1009.9mb 67f
3:00am 2 6 mph 1009.9mb 66f
2:50am 6 7 mph 1009.9mb 66f
2:40am 6 7 mph 1009.7mb 66f
2:30am 7 8 mph 1009.6mb 66f
2:20am 7 9 mph 1009.6mb 66f
2:10am 9 10 mph 1009.6mb 67f
2:00am 8 10 mph 1009.7mb 67f
1:50am 8 9 mph 1009.7mb 67f
1:40am 8 9 mph 1009.5mb 67f
1:30am 7 9 mph 1009.5mb 67f
1:20am 8 9 mph 1009.5mb 67f
1:10am 7 8 mph 1009.7mb 67f
1:00am 7 8 mph 1009.7mb 66f
12:50am 8 8 mph 1009.7mb 66f
12:40am 8 8 mph 1009.8mb 66f
12:30am 7 8 mph 1009.8mb 67f
12:20am 8 8 mph 1009.8mb 67f
12:10am 5 6 mph 1009.9mb 68f
12:00am 7 7 mph 1010mb 68f
Mon 08/14 11:50pm 7 7 mph 1010mb 68f
11:40pm 6 7 mph 1009.9mb 68f
11:30pm 7 8 mph 1010mb 68f
11:20pm 7 8 mph 1010mb 67f
11:10pm 6 6 mph 1010mb 67f
11:00pm 7 7 mph 1010mb 67f
10:50pm 6 6 mph 1010mb 67f
10:40pm 7 7 mph 1009.9mb 67f
10:30pm 6 7 mph 1010mb 67f
10:20pm 6 7 mph 1010mb 68f
10:10pm 6 6 mph 1010mb 67f
10:00pm 6 6 mph 1010mb 67f
9:50pm 6 6 mph 1010mb 68f
9:40pm 6 6 mph 1010mb 68f
9:30pm 6 7 mph 1010mb 68f
9:20pm 5 5 mph 1010mb 68f
9:10pm 3 3 mph 1010.1mb 68f
9:00pm 2 2 mph 1010.1mb 68f
8:50pm  -  2 mph 1010mb 68f
8:40pm 2 2 mph 1009.9mb 69f
8:30pm 3 3 mph 1009.9mb 69f
8:20pm 3 3 mph 1009.9mb 69f
8:10pm 3 3 mph 1009.9mb 69f
8:00pm 3 5 mph 1009.9mb 70f
7:50pm 5 5 mph 1009.9mb 70f
6:50pm 3 3 mph 1009.8mb 73f
6:40pm 3 3 mph 1009.7mb 73f
6:30pm 2 2 mph 1009.6mb 73f
6:20pm 2 3 mph 1009.6mb 73f
6:10pm 3 3 mph 1009.6mb 73f
6:00pm 3 5 mph 1009.7mb 73f
5:50pm 3 3 mph 1009.7mb 73f
5:40pm 3 3 mph 1009.7mb 73f
5:30pm 3 5 mph 1009.9mb 73f
5:20pm 3 5 mph 1010mb 73f
5:10pm 3 5 mph 1009.9mb 73f
5:00pm 3 3 mph 1010mb 73f
4:50pm 3 3 mph 1010.2mb 73f
4:40pm 3 5 mph 1010.2mb 72f
4:30pm 3 5 mph 1010.3mb 72f
4:20pm 5 5 mph 1010.3mb 72f
4:10pm 5 5 mph 1010.4mb 71f
4:00pm 2 3 mph 1010.3mb 71f
3:50pm 3 5 mph 1010.3mb 71f
3:40pm 5 5 mph 1010.6mb 71f
3:30pm 3 3 mph 1010.5mb 71f
3:20pm 3 5 mph 1010.7mb 71f
3:10pm 2 2 mph 1010.7mb 71f
3:00pm 2 2 mph 1010.7mb 71f
2:50pm 5 5 mph 1010.9mb 71f
2:40pm 3 5 mph 1010.8mb 71f
2:30pm 5 6 mph 1010.9mb 71f
2:20pm 6 7 mph 1011.2mb 71f
2:10pm 6 6 mph 1011.2mb 71f
2:00pm 5 5 mph 1011mb 71f
1:50pm 3 5 mph 1011.2mb 71f
1:40pm 3 5 mph 1011.3mb 71f
1:30pm 3 3 mph 1011.5mb 71f
1:20pm 3 5 mph 1011.8mb 71f
1:10pm 5 6 mph 1011.9mb 71f
1:00pm 5 6 mph 1011.7mb 71f
12:50pm 5 5 mph 1011.8mb 71f
12:40pm 6 6 mph 1012mb 71f
12:30pm 7 7 mph 1012mb 71f
12:20pm 7 7 mph 1012.1mb 71f
12:10pm 7 7 mph 1012.1mb 70f
12:00pm 6 7 mph 1012mb 70f
11:50am 6 7 mph 1012.1mb 70f
11:40am 6 7 mph 1012.3mb 71f
11:30am 7 8 mph 1012.4mb 70f
11:20am 6 6 mph 1012.4mb 70f
11:10am 5 5 mph 1012.2mb 70f
11:00am 5 6 mph 1012.6mb 69f
10:50am 5 6 mph 1012.5mb 70f
10:40am 5 6 mph 1012.6mb 70f
10:30am 5 6 mph 1012.6mb 70f
10:20am 6 6 mph 1012.6mb 70f
10:10am 5 6 mph 1012.5mb 70f
10:00am 5 6 mph 1012.4mb 70f
9:50am 6 6 mph 1012.4mb 71f
9:40am 6 7 mph 1012.4mb 71f
9:30am 5 6 mph 1012.5mb 72f
9:20am 3 5 mph 1012.6mb 71f
9:10am 3 5 mph 1012.7mb 72f
9:00am 3 5 mph 1012.7mb 71f
8:50am 3 5 mph 1012.9mb 70f
8:40am 3 5 mph 1012.9mb 68f
8:30am 3 5 mph 1013.2mb 68f
8:20am 3 5 mph 1013.2mb 68f
8:10am 3 5 mph 1013.2mb 68f
8:00am 5 6 mph 1013.1mb 67f
7:50am 5 6 mph 1013.2mb 67f
7:40am 7 7 mph 1013.2mb 66f
7:30am 6 7 mph 1013.2mb 66f
7:20am 6 7 mph 1013.4mb 66f
7:10am 6 7 mph 1013.3mb 65f
7:00am 7 8 mph 1013.5mb 65f
6:50am 7 8 mph 1013.4mb 65f
6:40am 5 6 mph 1013.8mb 65f
6:30am 6 7 mph 1014mb 65f
6:20am 6 7 mph 1013.8mb 65f
6:10am 7 7 mph 1014mb 65f
6:00am 5 7 mph 1014mb 65f
5:50am 6 7 mph 1013.9mb 65f
5:40am 6 6 mph 1013.8mb 64f
5:30am 6 7 mph 1013.8mb 64f
5:20am 6 6 mph 1013.8mb 64f
5:10am 5 6 mph 1014mb 65f
5:00am 6 6 mph 1013.9mb 65f
4:50am 5 5 mph 1013.9mb 65f
4:40am 3 5 mph 1013.9mb 65f
4:30am 5 5 mph 1013.9mb 65f
4:20am 5 6 mph 1013.9mb 65f
4:10am 6 6 mph 1013.9mb 65f
4:00am 7 7 mph 1013.9mb 65f
3:50am 6 6 mph 1013.9mb 65f
3:40am 5 5 mph 1013.9mb 65f
3:30am 5 5 mph 1013.9mb 65f
3:20am 5 6 mph 1013.9mb 65f
3:10am 5 5 mph 1013.9mb 65f
3:00am 5 5 mph 1014.1mb 65f
2:50am 5 5 mph 1014.1mb 65f
2:40am 3 3 mph 1014.2mb 66f
2:30am 3 3 mph 1014.4mb 66f
2:20am 5 5 mph 1014.4mb 66f
2:10am 5 5 mph 1014.4mb 66f
2:00am 2 3 mph 1014.5mb 66f
1:50am 2 2 mph 1014.5mb 66f
1:40am 2 2 mph 1014.5mb 67f
1:30am 3 5 mph 1014.5mb 66f
1:20am  -  1 mph 1014.6mb 67f
1:10am 1 1 mph 1014.8mb 67f
1:00am  -  0 mph 1014.9mb 67f
12:50am  -  1 mph 1014.9mb 67f
12:40am 1 2 mph 1015.1mb 67f
12:30am 2 2 mph 1015mb 67f
12:20am  -  1 mph 1014.9mb 67f
12:10am 2 2 mph 1014.9mb 67f
12:00am 3 6 mph 1015.2mb 67f
Sun 08/13 11:50pm 3 3 mph 1015.2mb 67f
11:40pm 5 6 mph 1015mb 67f
11:30pm 3 5 mph 1015.1mb 67f
11:20pm 2 3 mph 1015mb 66f
11:10pm 3 5 mph 1015.2mb 66f
11:00pm 2 3 mph 1015.2mb 67f
10:50pm 5 7 mph 1015.2mb 67f
10:40pm 5 6 mph 1015.2mb 67f
10:30pm 7 8 mph 1015.3mb 66f
10:20pm 6 6 mph 1015.4mb 66f
10:10pm 6 6 mph 1015.3mb 66f
10:00pm 6 7 mph 1015.3mb 66f
9:50pm 5 6 mph 1015.3mb 65f
9:40pm 5 6 mph 1015.3mb 65f
9:30pm 6 6 mph 1015.3mb 65f
9:20pm 5 5 mph 1015.6mb 65f
9:10pm 3 3 mph 1015.6mb 65f
9:00pm 2 2 mph 1015.5mb 66f
8:50pm 2 3 mph 1015.5mb 66f
8:40pm 2 3 mph 1015.3mb 66f
8:30pm 2 2 mph 1015.3mb 67f
8:20pm 2 3 mph 1015.2mb 67f
8:10pm 3 3 mph 1015.1mb 68f